createdAt,value
2023-03-13T00:00:50.453Z,2.2
2023-03-13T00:02:51.831Z,2.1
2023-03-13T00:04:53.378Z,3.8
2023-03-13T00:06:54.776Z,1.2
2023-03-13T00:08:59.275Z,1.6
2023-03-13T00:11:00.635Z,2.6
2023-03-13T00:13:02.000Z,1.9
2023-03-13T00:15:03.377Z,3
2023-03-13T00:17:04.899Z,2.1
2023-03-13T00:19:06.132Z,1
2023-03-13T00:21:07.481Z,4.8
2023-03-13T00:23:12.141Z,0.8
2023-03-13T00:25:13.549Z,2.7
2023-03-13T00:27:14.907Z,3.2
2023-03-13T00:33:19.024Z,1.8
2023-03-13T00:35:20.418Z,1.9
2023-03-13T00:37:25.069Z,2.9
2023-03-13T00:41:27.809Z,1.8
2023-03-13T00:42:30.125Z,1.9
2023-03-13T00:44:31.490Z,2.5
2023-03-13T00:48:34.224Z,3
2023-03-13T00:52:40.250Z,2.7
2023-03-13T00:54:41.639Z,2.8
2023-03-13T00:58:44.360Z,3.4
2023-03-13T01:00:45.725Z,2.4
2023-03-13T01:02:47.216Z,5.6
2023-03-13T01:04:51.790Z,0.2
2023-03-13T01:06:53.142Z,3.7
2023-03-13T01:08:54.539Z,1.5
2023-03-13T01:10:55.889Z,5.2
2023-03-13T01:12:57.249Z,2.7
2023-03-13T01:14:58.642Z,3.3
2023-03-13T01:17:00.002Z,2.2
2023-03-13T01:19:04.655Z,2.1
2023-03-13T01:21:06.048Z,3
2023-03-13T01:23:07.403Z,2.1
2023-03-13T01:25:08.784Z,2.8
2023-03-13T01:27:10.179Z,0.7
2023-03-13T01:29:11.517Z,0.7
2023-03-13T01:31:12.958Z,1.4
2023-03-13T01:33:17.549Z,1.1
2023-03-13T01:37:20.270Z,1.4
2023-03-13T01:38:22.596Z,3.4
2023-03-13T01:40:23.993Z,1.2
2023-03-13T01:42:25.367Z,1.2
2023-03-13T01:44:26.727Z,0.4
2023-03-13T01:46:31.489Z,0.6
2023-03-13T01:48:32.781Z,1.1
2023-03-13T01:50:34.137Z,3.6
2023-03-13T01:52:35.521Z,0.6
2023-03-13T01:54:36.889Z,3.5
2023-03-13T01:56:38.250Z,1.3
2023-03-13T01:58:39.657Z,0.8
2023-03-13T02:00:44.338Z,0.7
2023-03-13T02:02:45.822Z,1.7
2023-03-13T02:04:47.101Z,1.1
2023-03-13T02:06:48.449Z,0.8
2023-03-13T02:08:49.814Z,0.1
2023-03-13T02:10:51.195Z,0.1
2023-03-13T02:12:52.562Z,0.1
2023-03-13T02:14:57.221Z,0.2
2023-03-13T02:16:58.639Z,0.1
2023-03-13T02:18:59.996Z,0.1
2023-03-13T02:21:01.349Z,0.1
2023-03-13T02:23:02.719Z,0
2023-03-13T02:25:04.097Z,0.2
2023-03-13T02:29:10.162Z,0.2
2023-03-13T02:31:11.511Z,0.1
2023-03-13T02:33:12.908Z,0.2
2023-03-13T02:35:29.514Z,0.1
2023-03-13T02:37:30.825Z,0.1
2023-03-13T02:39:32.229Z,0.4
2023-03-13T02:41:36.891Z,0.1
2023-03-13T02:43:38.257Z,0.1
2023-03-13T02:45:39.628Z,0
2023-03-13T02:49:42.420Z,0.3
2023-03-13T02:51:43.787Z,0.1
2023-03-13T02:55:49.845Z,0.1
2023-03-13T02:57:51.208Z,0
2023-03-13T02:59:52.573Z,0
2023-03-13T03:01:53.985Z,0.1
2023-03-13T03:03:55.341Z,0
2023-03-13T03:05:56.706Z,0
2023-03-13T03:07:58.109Z,0.1
2023-03-13T03:10:02.763Z,0
2023-03-13T03:12:04.179Z,0.1
2023-03-13T03:14:05.551Z,0.1
2023-03-13T03:16:07.005Z,0.1
2023-03-13T03:18:08.311Z,0.1
2023-03-13T03:20:09.683Z,0.1
2023-03-13T03:22:11.038Z,0.1
2023-03-13T03:24:15.794Z,0.2
2023-03-13T03:26:17.102Z,0.1
2023-03-13T03:28:18.500Z,0.1
2023-03-13T03:29:20.832Z,0.1
2023-03-13T03:33:23.549Z,0.2
2023-03-13T03:37:29.629Z,0.1
2023-03-13T03:45:35.222Z,0
2023-03-13T04:01:49.562Z,0.1
2023-03-13T04:03:50.923Z,0.1
2023-03-13T04:05:55.582Z,0.1
2023-03-13T04:07:56.927Z,0.1
2023-03-13T04:09:58.312Z,0.1
2023-03-13T04:11:59.663Z,0.1
2023-03-13T04:14:01.107Z,0.1
2023-03-13T04:16:02.436Z,0.1
2023-03-13T04:18:03.810Z,0.1
2023-03-13T04:20:08.542Z,0.1
2023-03-13T04:22:09.879Z,0.1
2023-03-13T04:24:11.270Z,0.1
2023-03-13T04:25:13.576Z,0
2023-03-13T04:31:17.833Z,0.1
2023-03-13T04:39:26.600Z,0.1
2023-03-13T04:41:27.969Z,0.1
2023-03-13T04:43:29.386Z,0
2023-03-13T04:45:30.722Z,0.1
2023-03-13T04:53:39.551Z,0.1
2023-03-13T04:59:43.678Z,0.1
2023-03-13T05:03:49.726Z,0.1
2023-03-13T05:05:51.158Z,0.1
2023-03-13T05:13:56.598Z,0
2023-03-13T05:16:01.395Z,0.1
2023-03-13T05:18:02.707Z,0.1
2023-03-13T05:20:04.078Z,0
2023-03-13T05:25:10.739Z,0.1
2023-03-13T05:33:19.585Z,0.1
2023-03-13T05:39:23.652Z,0.1
2023-03-13T05:41:25.034Z,0.2
2023-03-13T05:43:29.737Z,0.1
2023-03-13T05:45:31.105Z,0.1
2023-03-13T05:47:32.487Z,0.1
2023-03-13T05:57:42.662Z,2
2023-03-13T05:59:44.030Z,0
2023-03-13T06:01:45.445Z,0.1
2023-03-13T06:03:47.007Z,0.6
2023-03-13T06:05:48.165Z,0.1
2023-03-13T06:07:49.558Z,0.1
2023-03-13T06:09:50.922Z,0.1
2023-03-13T06:11:55.618Z,0.1
2023-03-13T06:13:56.995Z,0.1
2023-03-13T06:15:58.470Z,0.1
2023-03-13T06:18:25.228Z,0.1
2023-03-13T06:20:26.585Z,0.1
2023-03-13T06:22:27.949Z,0.4
2023-03-13T06:24:32.683Z,0.1
2023-03-13T06:26:34.023Z,0
2023-03-13T06:28:35.421Z,0
2023-03-13T06:30:36.782Z,0
2023-03-13T06:32:38.374Z,0.1
2023-03-13T06:34:39.568Z,0.1
2023-03-13T06:36:41.027Z,0
2023-03-13T06:38:45.635Z,0
2023-03-13T06:40:48.000Z,0
2023-03-13T06:42:48.386Z,0.3
2023-03-13T06:44:50.402Z,0.1
2023-03-13T06:46:51.852Z,0
2023-03-13T06:48:53.135Z,0
2023-03-13T06:50:54.540Z,0.1
2023-03-13T06:52:59.192Z,3.2
2023-03-13T06:55:00.596Z,2.6
2023-03-13T06:57:01.915Z,1.4
2023-03-13T06:59:03.344Z,1.6
2023-03-13T07:01:04.756Z,2.2
2023-03-13T07:03:06.052Z,3
2023-03-13T07:05:07.443Z,0.6
2023-03-13T07:07:25.774Z,1.6
2023-03-13T07:09:13.547Z,3.4
2023-03-13T07:11:14.872Z,2.1
2023-03-13T07:12:17.223Z,1.6
2023-03-13T07:14:18.600Z,2.1
2023-03-13T07:16:20.073Z,2.6
2023-03-13T07:18:21.360Z,0.9
2023-03-13T07:20:26.133Z,1
2023-03-13T07:22:27.431Z,1.9
2023-03-13T07:24:28.841Z,1.6
2023-03-13T07:26:30.211Z,1.8
2023-03-13T07:28:31.594Z,0.6
2023-03-13T07:30:32.918Z,1.6
2023-03-13T07:32:34.342Z,3.6
2023-03-13T07:34:38.957Z,1.5
2023-03-13T07:36:40.520Z,1
2023-03-13T07:38:41.749Z,2.8
2023-03-13T07:40:43.128Z,2.7
2023-03-13T07:42:44.470Z,1
2023-03-13T07:44:45.862Z,2.1
2023-03-13T07:46:47.270Z,2
2023-03-13T07:50:53.329Z,2.4
2023-03-13T07:52:54.716Z,1.6
2023-03-13T07:56:57.453Z,2.6
2023-03-13T07:58:58.832Z,2
2023-03-13T08:01:00.228Z,1.4
2023-03-13T08:03:05.412Z,1.1
2023-03-13T08:05:06.608Z,2.5
2023-03-13T08:07:07.736Z,2.7
2023-03-13T08:08:10.319Z,1.8
2023-03-13T08:10:11.372Z,2
2023-03-13T08:12:12.740Z,1.3
2023-03-13T08:14:14.326Z,1
2023-03-13T08:16:18.836Z,0.1
2023-03-13T08:18:20.213Z,0.1
2023-03-13T08:20:21.586Z,0.7
2023-03-13T08:22:22.944Z,0.6
2023-03-13T08:24:24.336Z,1
2023-03-13T08:26:25.717Z,0
2023-03-13T08:28:27.087Z,0.5
2023-03-13T08:30:31.848Z,1.1
2023-03-13T08:32:33.178Z,1.2
2023-03-13T08:34:34.497Z,0.3
2023-03-13T08:36:35.888Z,0
2023-03-13T08:38:37.233Z,0.4
2023-03-13T08:44:44.654Z,0.6
2023-03-13T08:46:46.076Z,0.1
2023-03-13T08:48:47.457Z,0.1
2023-03-13T08:50:48.777Z,0.2
2023-03-13T08:56:52.931Z,1
2023-03-13T08:58:57.678Z,0.9
2023-03-13T09:00:59.036Z,0.1
2023-03-13T09:03:00.377Z,1.7
2023-03-13T09:04:04.480Z,1.3
2023-03-13T09:06:04.092Z,1.8
2023-03-13T09:08:05.508Z,1.2
2023-03-13T09:10:06.889Z,1.2
2023-03-13T09:12:24.729Z,0.2
2023-03-13T09:14:12.944Z,0.7
2023-03-13T09:16:14.301Z,0.8
2023-03-13T09:18:15.710Z,0.8
2023-03-13T09:20:17.079Z,0.4
2023-03-13T09:22:18.404Z,1
2023-03-13T09:24:19.787Z,1
2023-03-13T09:26:24.493Z,0.4
2023-03-13T09:28:25.811Z,0.7
2023-03-13T09:30:27.208Z,0.2
2023-03-13T09:32:28.578Z,0.1
2023-03-13T09:34:29.949Z,0.2
2023-03-13T09:36:31.323Z,0
2023-03-13T09:38:32.725Z,0
2023-03-13T09:42:38.775Z,0.7
2023-03-13T09:46:41.682Z,0.7
2023-03-13T09:54:50.338Z,0.9
2023-03-13T10:01:19.847Z,0.8
2023-03-13T10:11:29.990Z,1.5
2023-03-13T10:13:31.386Z,0.4
2023-03-13T10:15:32.748Z,0.8
2023-03-13T10:19:35.473Z,0.5
2023-03-13T10:21:40.156Z,1.2
2023-03-13T10:23:41.542Z,1.5
2023-03-13T10:25:42.863Z,0.6
2023-03-13T10:27:44.311Z,0.4
2023-03-13T10:29:45.634Z,1.5
2023-03-13T10:33:48.380Z,0.4
2023-03-13T10:35:53.128Z,1.3
2023-03-13T10:37:54.392Z,1.2
2023-03-13T10:43:58.497Z,0.9
2023-03-13T10:45:59.899Z,0.3
2023-03-13T10:48:01.218Z,0.5
2023-03-13T10:50:05.916Z,0.9
2023-03-13T10:52:07.264Z,0.5
2023-03-13T10:54:08.664Z,0.6
2023-03-13T10:55:10.959Z,0.7
2023-03-13T10:59:13.698Z,1.2
2023-03-13T11:01:15.179Z,0.8
2023-03-13T11:03:19.624Z,0.7
2023-03-13T11:05:20.848Z,0.3
2023-03-13T11:07:22.125Z,0.9
2023-03-13T11:13:36.128Z,0.4
2023-03-13T11:15:27.369Z,0.9
2023-03-13T11:17:33.423Z,0.4
2023-03-13T11:19:34.685Z,1
2023-03-13T11:21:35.969Z,0.6
2023-03-13T11:23:37.289Z,0.8
2023-03-13T11:25:38.551Z,0.3
2023-03-13T11:31:45.756Z,0.3
2023-03-13T11:39:51.071Z,0.4
2023-03-13T11:43:53.728Z,0.7
2023-03-13T11:45:58.397Z,0.7
2023-03-13T11:47:59.614Z,0.5
2023-03-13T11:51:03.113Z,0.5
2023-03-13T11:53:04.402Z,0.6
2023-03-13T11:55:05.692Z,1.2
2023-03-13T11:59:11.420Z,0.7
2023-03-13T12:01:12.846Z,1.1
2023-03-13T12:09:17.900Z,1.5
2023-03-13T12:11:19.191Z,0.9
2023-03-13T12:13:23.670Z,0.7
2023-03-13T12:15:25.038Z,0.4
2023-03-13T12:17:26.418Z,0.8
2023-03-13T12:19:27.720Z,0.4
2023-03-13T12:21:29.034Z,0.5
2023-03-13T12:23:30.338Z,0.3
2023-03-13T12:25:31.598Z,0.3
2023-03-13T12:27:35.992Z,0.4
2023-03-13T12:29:37.232Z,0.6
2023-03-13T12:31:38.912Z,0.8
2023-03-13T12:33:40.162Z,0.5
2023-03-13T12:35:41.403Z,0.4
2023-03-13T12:37:42.628Z,0.7
2023-03-13T12:39:43.886Z,0.3
2023-03-13T12:41:48.470Z,0.2
2023-03-13T12:44:04.248Z,0.4
2023-03-13T12:45:51.162Z,0.6
2023-03-13T12:48:54.516Z,0.5
2023-03-13T12:50:55.848Z,0.2
2023-03-13T12:52:57.075Z,0.8
2023-03-13T12:55:01.533Z,0.2
2023-03-13T12:57:02.776Z,0.7
2023-03-13T12:59:04.169Z,0.5
2023-03-13T13:01:05.764Z,1.1
2023-03-13T13:13:16.636Z,0.7
2023-03-13T13:17:19.096Z,0.2
2023-03-13T13:19:20.344Z,1.2
2023-03-13T13:21:21.670Z,0.9
2023-03-13T13:23:26.295Z,1.6
2023-03-13T13:25:27.611Z,1.5
2023-03-13T13:27:28.986Z,0.9
2023-03-13T13:29:30.302Z,1.2
2023-03-13T13:31:31.715Z,0.1
2023-03-13T13:33:32.945Z,0.6
2023-03-13T13:41:41.960Z,0.7
2023-03-13T13:44:02.321Z,0.7
2023-03-13T13:48:04.952Z,0.5
2023-03-13T13:50:09.556Z,0.7
2023-03-13T13:52:10.784Z,1.2
2023-03-13T13:54:12.118Z,1.4
2023-03-13T13:56:13.400Z,0.9
2023-03-13T13:58:14.701Z,0.2
2023-03-13T14:00:15.958Z,0.1
2023-03-13T14:02:17.293Z,0.9
2023-03-13T14:08:24.465Z,0.4
2023-03-13T14:12:26.981Z,0.1
2023-03-13T14:16:29.571Z,0.8
2023-03-13T14:26:39.015Z,1
2023-03-13T14:28:40.255Z,0.7
2023-03-13T14:30:41.533Z,0.8
2023-03-13T14:32:46.168Z,0.3
2023-03-13T14:34:47.470Z,0.7
2023-03-13T14:36:48.755Z,1.3
2023-03-13T14:37:50.990Z,0.9
2023-03-13T14:39:52.273Z,1.4
2023-03-13T14:45:59.362Z,1.6
2023-03-13T14:48:00.614Z,0.2
2023-03-13T14:54:04.453Z,0.7
2023-03-13T14:56:05.785Z,0.8
2023-03-13T15:00:11.857Z,1.4
2023-03-13T15:04:14.402Z,0.8
2023-03-13T15:06:15.662Z,1.6
2023-03-13T15:08:16.954Z,1.4
2023-03-13T15:12:19.466Z,0.8
2023-03-13T15:20:27.866Z,1.2
2023-03-13T15:22:29.122Z,2.1
2023-03-13T15:24:30.358Z,1.5
2023-03-13T15:30:37.426Z,1.5
2023-03-13T15:33:41.025Z,1
2023-03-13T15:35:42.343Z,1.5
2023-03-13T15:37:43.520Z,0.9
2023-03-13T15:39:44.789Z,1.3
2023-03-13T15:41:49.367Z,0.6
2023-03-13T15:43:50.704Z,0.6
2023-03-13T15:45:52.145Z,2.2
2023-03-13T15:47:53.252Z,0.5
2023-03-13T15:49:54.513Z,1.8
2023-03-13T15:53:57.787Z,1.3
2023-03-13T15:56:02.443Z,0.9
2023-03-13T15:58:03.664Z,1.9
2023-03-13T16:02:06.376Z,1.4
2023-03-13T16:08:10.146Z,2.6
2023-03-13T16:12:16.084Z,2
2023-03-13T16:14:17.325Z,1.4
2023-03-13T16:18:19.974Z,1.5
2023-03-13T16:26:28.568Z,2.7
2023-03-13T16:28:29.855Z,0.8
2023-03-13T16:31:33.614Z,2.6
2023-03-13T16:37:40.769Z,1.5
2023-03-13T16:45:46.144Z,1.9
2023-03-13T16:47:47.524Z,2.7
2023-03-13T16:49:48.920Z,2.1
2023-03-13T16:53:54.999Z,3.7
2023-03-13T16:59:59.077Z,2.1
2023-03-13T17:02:00.448Z,1.6
2023-03-13T17:04:01.924Z,2.9
2023-03-13T17:06:08.093Z,2.5
2023-03-13T17:08:09.455Z,1.6
2023-03-13T17:10:10.824Z,2.1
2023-03-13T17:12:12.172Z,1.3
2023-03-13T17:14:13.580Z,1.9
2023-03-13T17:16:15.005Z,2.3
2023-03-13T17:18:16.332Z,2.4
2023-03-13T17:26:46.447Z,2.1
2023-03-13T17:28:47.863Z,0.6
2023-03-13T17:30:49.292Z,1.4
2023-03-13T17:32:53.952Z,0.9
2023-03-13T17:34:55.306Z,3.2
2023-03-13T17:38:58.067Z,1.5
2023-03-13T17:40:59.443Z,2.4
2023-03-13T17:43:00.833Z,2.3
2023-03-13T17:45:02.215Z,1.8
2023-03-13T17:47:06.931Z,2.1
2023-03-13T17:49:08.304Z,2.7
2023-03-13T17:51:09.715Z,3
2023-03-13T17:53:11.076Z,2.4
2023-03-13T17:55:12.495Z,2.7
2023-03-13T17:59:15.241Z,3.2
2023-03-13T18:01:19.946Z,3.6
2023-03-13T18:03:21.322Z,3.4
2023-03-13T18:05:22.714Z,3
2023-03-13T18:07:24.103Z,2.6
2023-03-13T18:09:25.494Z,2.6
2023-03-13T18:11:26.848Z,3
2023-03-13T18:13:28.260Z,4.5
2023-03-13T18:15:32.924Z,3.6
2023-03-13T18:17:34.274Z,3
2023-03-13T18:19:35.725Z,2.8
2023-03-13T18:20:38.027Z,3.4
2023-03-13T18:22:39.399Z,2.8
2023-03-13T18:24:40.815Z,3.5
2023-03-13T18:26:42.210Z,3.3
2023-03-13T18:28:46.873Z,2.3
2023-03-13T18:30:48.287Z,2.9
2023-03-13T18:32:49.683Z,2.7
2023-03-13T18:34:51.072Z,2.2
2023-03-13T18:36:52.446Z,3.8
2023-03-13T18:38:53.854Z,2.7
2023-03-13T18:40:55.244Z,2.7
2023-03-13T18:42:59.918Z,2.6
2023-03-13T18:45:01.354Z,3.4
2023-03-13T18:47:02.703Z,2.8
2023-03-13T18:49:04.110Z,4.5
2023-03-13T18:57:12.974Z,2.4
2023-03-13T18:59:14.377Z,2.1
2023-03-13T19:01:15.838Z,3.9
2023-03-13T19:07:19.950Z,2.7
2023-03-13T19:09:42.243Z,3.4
2023-03-13T19:16:31.232Z,3.4
2023-03-13T19:20:33.986Z,3.9
2023-03-13T19:24:40.086Z,2.9
2023-03-13T19:26:41.487Z,3
2023-03-13T19:28:42.880Z,3.4
2023-03-13T19:30:44.277Z,4
2023-03-13T19:32:45.690Z,5.3
2023-03-13T19:38:53.129Z,3.9
2023-03-13T19:40:54.496Z,3.9
2023-03-13T19:42:55.922Z,3
2023-03-13T19:44:57.310Z,4.4
2023-03-13T19:49:00.155Z,4.2
2023-03-13T19:51:01.462Z,3.4
2023-03-13T19:55:07.502Z,3.5
2023-03-13T19:57:08.896Z,4.1
2023-03-13T19:59:10.297Z,3.7
2023-03-13T20:01:17.664Z,2.6
2023-03-13T20:07:19.139Z,4
2023-03-13T20:09:20.554Z,4
2023-03-13T20:11:21.905Z,2.8
2023-03-13T20:12:24.261Z,4.1
2023-03-13T20:14:25.666Z,4.6
2023-03-13T20:16:27.022Z,2.5
2023-03-13T20:18:28.446Z,4.3
2023-03-13T20:20:33.109Z,4
2023-03-13T20:24:35.918Z,2.9
2023-03-13T20:26:37.285Z,3.4
2023-03-13T20:28:38.714Z,4.4
2023-03-13T20:30:40.105Z,2
2023-03-13T20:32:53.041Z,4.7
2023-03-13T20:34:46.165Z,4.4
2023-03-13T20:36:47.548Z,2.5
2023-03-13T20:38:48.937Z,3.2
2023-03-13T20:40:50.330Z,1.2
2023-03-13T20:42:51.708Z,2.1
2023-03-13T20:44:53.097Z,4.4
2023-03-13T20:46:54.512Z,3.7
2023-03-13T20:48:59.213Z,2.9
2023-03-13T20:51:02.054Z,4.3
2023-03-13T20:53:01.980Z,4
2023-03-13T20:55:03.365Z,3
2023-03-13T20:57:04.764Z,2.7
2023-03-13T20:59:06.131Z,3.1
2023-03-13T21:01:07.525Z,3.7
2023-03-13T21:03:12.174Z,2.6
2023-03-13T21:05:13.576Z,4
2023-03-13T21:07:14.971Z,2.2
2023-03-13T21:09:35.624Z,2.1
2023-03-13T21:11:37.043Z,1.8
2023-03-13T21:13:38.388Z,3
2023-03-13T21:15:43.126Z,3
2023-03-13T21:17:44.491Z,2.7
2023-03-13T21:19:45.878Z,2.9
2023-03-13T21:25:50.043Z,2.2
2023-03-13T21:33:58.921Z,4
2023-03-13T21:36:00.403Z,4
2023-03-13T21:38:01.686Z,2.9
2023-03-13T21:40:03.084Z,2
2023-03-13T21:42:04.456Z,3.3
2023-03-13T21:44:09.167Z,2.8
2023-03-13T21:46:10.563Z,3.9
2023-03-13T21:58:22.151Z,3.1
2023-03-13T22:00:23.527Z,3.3
2023-03-13T22:03:27.340Z,2.5
2023-03-13T22:05:28.645Z,3.1
2023-03-13T22:07:30.034Z,2.4
2023-03-13T22:09:31.414Z,2
2023-03-13T22:11:36.091Z,1.7
2023-03-13T22:13:37.478Z,2.4
2023-03-13T22:15:38.924Z,1.3
2023-03-13T22:17:40.234Z,3.7
2023-03-13T22:19:41.644Z,1.4
2023-03-13T22:21:43.013Z,2
2023-03-13T22:23:44.384Z,2.2
2023-03-13T22:25:49.074Z,3.2
2023-03-13T22:27:50.457Z,2.4
2023-03-13T22:29:51.837Z,2.6
2023-03-13T22:31:53.225Z,1.2
2023-03-13T22:33:54.627Z,2.5
2023-03-13T22:35:56.043Z,2.8
2023-03-13T22:37:57.430Z,2.9
2023-03-13T22:40:02.070Z,1.6
2023-03-13T22:50:09.009Z,1.8
2023-03-13T22:52:10.410Z,2.5
2023-03-13T22:54:15.112Z,4.2
2023-03-13T22:56:18.112Z,2.5
2023-03-13T22:58:19.383Z,3
2023-03-13T22:59:21.749Z,3.6
2023-03-13T23:01:23.257Z,1.5
2023-03-13T23:03:24.481Z,2.4
2023-03-13T23:05:25.914Z,2.7
2023-03-13T23:07:30.565Z,2.3
2023-03-13T23:09:31.975Z,2.8
2023-03-13T23:19:38.930Z,2.1
2023-03-13T23:21:43.630Z,1.5
2023-03-13T23:25:46.390Z,2.2
2023-03-13T23:27:47.770Z,2.1
2023-03-13T23:29:49.163Z,1.4
2023-03-13T23:31:50.550Z,0.7
2023-03-13T23:33:51.950Z,1.9
2023-03-13T23:35:56.642Z,1.3
2023-03-13T23:39:59.420Z,2
2023-03-13T23:42:00.824Z,1.9
2023-03-13T23:44:02.228Z,1.3
2023-03-13T23:50:09.675Z,1.2
2023-03-13T23:52:11.083Z,1.8
2023-03-13T23:54:12.444Z,0.9
2023-03-13T23:55:14.809Z,0.8
